createdAt,value
2022-10-27T00:01:01.237Z,19.77
2022-10-27T00:06:04.075Z,14.75
2022-10-27T00:08:30.535Z,20.70
2022-10-27T00:10:58.741Z,16.88
2022-10-27T00:13:25.729Z,12.25
2022-10-27T00:16:03.911Z,16.83
2022-10-27T00:18:30.731Z,16.38
2022-10-27T00:20:59.023Z,16.80
2022-10-27T00:23:25.552Z,17.75
2022-10-27T00:25:53.650Z,20.60
2022-10-27T00:28:20.139Z,17.75
2022-10-27T00:30:46.611Z,22.40
2022-10-27T00:33:13.069Z,17.25
2022-10-27T00:35:39.545Z,18.27
2022-10-27T00:38:06.014Z,17.45
2022-10-27T00:40:38.719Z,20.23
2022-10-27T00:43:24.351Z,18.97
2022-10-27T00:45:50.948Z,17.92
2022-10-27T00:48:17.438Z,15.82
2022-10-27T00:50:44.425Z,15.30
2022-10-27T00:53:11.276Z,19.25
2022-10-27T00:55:39.259Z,17.05
2022-10-27T00:58:08.677Z,23.02
2022-10-27T01:00:37.218Z,21.17
2022-10-27T01:03:03.800Z,21.05
2022-10-27T01:05:30.266Z,19.05
2022-10-27T01:07:59.307Z,20.60
2022-10-27T01:10:26.168Z,25.52
2022-10-27T01:12:54.273Z,19.17
2022-10-27T01:15:22.873Z,18.48
2022-10-27T01:17:58.366Z,18.25
2022-10-27T01:20:40.872Z,19.08
2022-10-27T01:23:37.360Z,14.65
2022-10-27T01:26:23.432Z,22.77
2022-10-27T01:29:06.777Z,15.93
2022-10-27T01:32:22.505Z,23.27
2022-10-27T01:35:20.621Z,22.48
2022-10-27T01:37:52.483Z,18.92
2022-10-27T01:40:21.696Z,22.80
2022-10-27T01:42:55.952Z,20.13
2022-10-27T01:45:28.241Z,19.75
2022-10-27T01:47:58.790Z,22.15
2022-10-27T01:50:40.092Z,19.48
2022-10-27T01:53:17.030Z,24.70
2022-10-27T01:56:05.623Z,17.20
2022-10-27T01:58:47.207Z,25.67
2022-10-27T02:01:43.136Z,21.85
2022-10-27T02:04:34.286Z,18.33
2022-10-27T02:07:09.355Z,24.63
2022-10-27T02:09:44.024Z,17.75
2022-10-27T02:12:19.983Z,19.17
2022-10-27T02:14:47.454Z,25.30
2022-10-27T02:17:14.274Z,19.15
2022-10-27T02:19:42.445Z,19.20
2022-10-27T02:22:09.669Z,20.52
2022-10-27T02:24:36.175Z,27.48
2022-10-27T02:27:09.475Z,18.38
2022-10-27T02:29:46.691Z,17.48
2022-10-27T02:32:16.725Z,17.48
2022-10-27T02:34:47.091Z,21.45
2022-10-27T02:37:24.917Z,14.48
2022-10-27T02:39:51.461Z,14.52
2022-10-27T02:42:17.947Z,21.50
2022-10-27T02:44:44.407Z,19.73
2022-10-27T02:47:10.857Z,18.23
2022-10-27T02:49:37.343Z,21.13
2022-10-27T02:52:06.544Z,17.55
2022-10-27T02:54:33.218Z,23.30
2022-10-27T02:56:59.697Z,18.67
2022-10-27T02:59:26.199Z,23.05
2022-10-27T03:01:52.801Z,21.90
2022-10-27T03:04:19.455Z,23.27
2022-10-27T03:06:45.931Z,18.02
2022-10-27T03:09:12.400Z,20.73
2022-10-27T03:11:40.515Z,19.75
2022-10-27T03:14:09.221Z,28.92
2022-10-27T03:16:35.675Z,25.17
2022-10-27T03:19:02.231Z,14.52
2022-10-27T03:21:28.695Z,24.92
2022-10-27T03:23:55.157Z,21.55
2022-10-27T03:26:21.654Z,21.38
2022-10-27T03:28:48.327Z,22.35
2022-10-27T03:31:14.807Z,20.55
2022-10-27T03:33:41.669Z,24.02
2022-10-27T03:36:08.487Z,21.83
2022-10-27T03:38:34.952Z,17.75
2022-10-27T03:41:01.403Z,26.63
2022-10-27T03:43:30.010Z,24.77
2022-10-27T03:46:00.071Z,21.08
2022-10-27T03:48:27.595Z,21.45
2022-10-27T03:50:54.051Z,23.33
2022-10-27T03:53:20.578Z,20.90
2022-10-27T03:55:48.065Z,25.50
2022-10-27T03:58:16.760Z,16.40
2022-10-27T04:00:44.081Z,23.75
2022-10-27T04:03:10.613Z,20.98
2022-10-27T04:05:37.087Z,24.85
2022-10-27T04:08:03.599Z,22.17
2022-10-27T04:10:30.263Z,23.58
2022-10-27T04:12:57.227Z,18.92
2022-10-27T04:15:25.179Z,19.27
2022-10-27T04:17:56.088Z,21.83
2022-10-27T04:20:23.181Z,23.33
2022-10-27T04:22:50.160Z,21.30
2022-10-27T04:25:17.258Z,22.08
2022-10-27T04:27:44.229Z,23.83
2022-10-27T04:30:11.344Z,21.48
2022-10-27T04:32:38.150Z,23.48
2022-10-27T04:35:06.402Z,29.17
2022-10-27T04:37:34.009Z,22.58
2022-10-27T04:40:00.607Z,22.73
2022-10-27T04:42:27.056Z,27.40
2022-10-27T04:44:53.521Z,24.20
2022-10-27T04:47:19.979Z,24.70
2022-10-27T04:49:46.447Z,27.75
2022-10-27T04:54:44.965Z,22.13
2022-10-27T04:57:11.579Z,19.25
2022-10-27T04:59:38.054Z,27.65
2022-10-27T05:02:04.664Z,26.80
2022-10-27T05:04:31.189Z,26.42
2022-10-27T05:06:57.640Z,32.60
2022-10-27T05:09:24.095Z,25.45
2022-10-27T05:11:50.547Z,24.45
2022-10-27T05:14:17.052Z,24.33
2022-10-27T05:16:43.507Z,24.15
2022-10-27T05:19:09.960Z,24.42
2022-10-27T05:21:36.448Z,26.60
2022-10-27T05:24:02.938Z,23.90
2022-10-27T05:26:30.895Z,27.15
2022-10-27T05:28:59.447Z,15.80
2022-10-27T05:31:25.911Z,18.27
2022-10-27T05:33:52.572Z,23.10
2022-10-27T05:36:19.086Z,19.25
2022-10-27T05:38:46.354Z,23.90
2022-10-27T05:41:13.025Z,25.88
2022-10-27T05:43:42.545Z,22.00
2022-10-27T05:46:09.370Z,17.25
2022-10-27T05:48:35.879Z,21.75
2022-10-27T05:51:02.354Z,22.70
2022-10-27T05:53:28.816Z,19.08
2022-10-27T05:55:55.359Z,23.50
2022-10-27T05:58:21.910Z,25.17
2022-10-27T06:00:49.497Z,22.08
2022-10-27T06:03:23.931Z,19.33
2022-10-27T06:05:50.867Z,18.13
2022-10-27T06:08:18.030Z,20.67
2022-10-27T06:10:45.259Z,23.40
2022-10-27T06:13:14.483Z,28.38
2022-10-27T06:15:41.304Z,14.25
2022-10-27T06:18:08.251Z,15.75
2022-10-27T06:20:34.770Z,24.33
2022-10-27T06:23:01.230Z,21.52
2022-10-27T06:25:27.706Z,21.55
2022-10-27T06:27:54.532Z,18.50
2022-10-27T06:30:21.220Z,18.13
2022-10-27T06:32:47.755Z,25.25
2022-10-27T06:35:14.320Z,22.77
2022-10-27T06:37:42.896Z,17.23
2022-10-27T06:40:09.884Z,15.82
2022-10-27T06:42:48.693Z,24.35
2022-10-27T06:45:18.587Z,18.30
2022-10-27T06:47:45.426Z,27.08
2022-10-27T06:50:12.255Z,17.95
2022-10-27T06:52:39.540Z,20.90
2022-10-27T06:55:06.239Z,17.63
2022-10-27T06:57:40.863Z,21.33
2022-10-27T07:00:08.295Z,19.70
2022-10-27T07:02:34.972Z,22.52
2022-10-27T07:05:01.571Z,17.58
2022-10-27T07:07:28.027Z,15.02
2022-10-27T07:09:54.543Z,17.10
2022-10-27T07:12:21.087Z,24.35
2022-10-27T07:14:47.560Z,22.02
2022-10-27T07:17:14.058Z,20.80
2022-10-27T07:19:40.564Z,19.27
2022-10-27T07:22:07.014Z,15.88
2022-10-27T07:24:33.461Z,17.05
2022-10-27T07:26:59.979Z,15.45
2022-10-27T07:29:26.532Z,19.52
2022-10-27T07:31:53.232Z,18.38
2022-10-27T07:34:19.699Z,16.58
2022-10-27T07:36:46.412Z,14.77
2022-10-27T07:39:12.873Z,20.98
2022-10-27T07:41:39.332Z,18.00
2022-10-27T07:44:05.809Z,18.00
2022-10-27T07:46:32.562Z,25.20
2022-10-27T07:48:59.020Z,23.10
2022-10-27T07:51:25.520Z,20.73
2022-10-27T07:53:55.493Z,22.65
2022-10-27T07:56:24.451Z,21.35
2022-10-27T07:58:51.058Z,19.35
2022-10-27T08:01:17.650Z,17.17
2022-10-27T08:03:46.316Z,25.55
2022-10-27T08:06:15.276Z,19.27
2022-10-27T08:08:41.767Z,19.90
2022-10-27T08:11:08.386Z,19.60
2022-10-27T08:13:34.830Z,26.40
2022-10-27T08:16:01.313Z,25.88
2022-10-27T08:18:27.954Z,20.27
2022-10-27T08:20:54.451Z,16.92
2022-10-27T08:23:21.912Z,18.25
2022-10-27T08:25:48.552Z,20.13
2022-10-27T08:28:15.440Z,19.80
2022-10-27T08:30:51.424Z,18.77
2022-10-27T08:33:19.844Z,23.85
2022-10-27T08:35:46.337Z,18.83
2022-10-27T08:38:14.865Z,16.65
2022-10-27T08:40:47.090Z,17.15
2022-10-27T08:43:33.241Z,24.00
2022-10-27T08:46:05.856Z,20.05
2022-10-27T08:48:33.383Z,16.92
2022-10-27T08:51:01.556Z,18.45
2022-10-27T08:53:34.314Z,16.52
2022-10-27T08:56:07.188Z,15.57
2022-10-27T08:58:38.058Z,16.15
2022-10-27T09:01:19.965Z,17.15
2022-10-27T09:03:55.867Z,22.33
2022-10-27T09:06:26.624Z,13.50
2022-10-27T09:09:04.347Z,18.02
2022-10-27T09:11:52.267Z,15.07
2022-10-27T09:14:39.397Z,13.85
2022-10-27T09:17:12.630Z,17.63
2022-10-27T09:19:43.979Z,14.00
2022-10-27T09:22:18.849Z,13.02
2022-10-27T09:24:54.196Z,14.95
2022-10-27T09:27:20.848Z,13.48
2022-10-27T09:29:48.366Z,15.75
2022-10-27T09:32:27.517Z,13.32
2022-10-27T09:35:01.284Z,12.45
2022-10-27T09:37:28.761Z,12.27
2022-10-27T09:39:57.125Z,14.40
2022-10-27T09:42:24.401Z,11.15
2022-10-27T09:45:01.626Z,16.30
2022-10-27T09:47:39.647Z,10.18
2022-10-27T09:50:07.274Z,12.73
2022-10-27T09:52:39.943Z,11.15
2022-10-27T09:55:06.778Z,11.57
2022-10-27T09:57:34.531Z,11.88
2022-10-27T10:00:16.130Z,11.85
2022-10-27T10:02:58.786Z,12.70
2022-10-27T10:05:30.783Z,11.02
2022-10-27T10:08:25.564Z,11.13
2022-10-27T10:10:58.903Z,16.17
2022-10-27T10:13:30.078Z,12.48
2022-10-27T10:16:11.250Z,14.38
2022-10-27T10:18:41.196Z,12.38
2022-10-27T10:21:11.197Z,14.02
2022-10-27T10:23:46.714Z,12.80
2022-10-27T10:26:19.885Z,12.80
2022-10-27T10:28:46.448Z,12.60
2022-10-27T10:31:15.855Z,14.02
2022-10-27T10:33:45.042Z,12.73
2022-10-27T10:36:29.966Z,16.40
2022-10-27T10:38:58.513Z,14.55
2022-10-27T10:41:26.088Z,12.55
2022-10-27T10:44:11.242Z,13.30
2022-10-27T10:46:52.840Z,12.95
2022-10-27T10:49:22.390Z,13.13
2022-10-27T10:51:53.855Z,13.07
2022-10-27T10:54:31.429Z,9.43
2022-10-27T10:56:57.938Z,13.75
2022-10-27T10:59:29.644Z,11.73
2022-10-27T11:02:21.099Z,12.02
2022-10-27T11:04:47.911Z,12.25
2022-10-27T11:07:30.504Z,10.05
2022-10-27T11:10:10.098Z,11.75
2022-10-27T11:12:40.749Z,10.23
2022-10-27T11:15:17.333Z,9.27
2022-10-27T11:17:46.004Z,14.38
2022-10-27T11:20:24.811Z,11.38
2022-10-27T11:22:52.418Z,11.88
2022-10-27T11:25:21.378Z,9.10
2022-10-27T11:28:04.963Z,7.07
2022-10-27T11:30:34.990Z,8.60
2022-10-27T11:33:13.383Z,8.13
2022-10-27T11:35:42.726Z,10.27
2022-10-27T11:38:20.273Z,9.55
2022-10-27T11:40:49.656Z,9.90
2022-10-27T11:43:46.427Z,11.27
2022-10-27T11:46:19.635Z,11.15
2022-10-27T11:48:51.217Z,8.40
2022-10-27T11:51:28.119Z,11.10
2022-10-27T11:53:54.783Z,9.52
2022-10-27T11:56:49.801Z,10.27
2022-10-27T11:59:39.011Z,10.50
2022-10-27T12:02:36.629Z,12.77
2022-10-27T12:05:09.024Z,10.35
2022-10-27T12:07:47.093Z,10.00
2022-10-27T12:10:32.331Z,10.45
2022-10-27T12:13:12.574Z,9.40
2022-10-27T12:15:49.255Z,11.52
2022-10-27T12:18:46.493Z,10.30
2022-10-27T12:21:28.891Z,11.38
2022-10-27T12:23:55.320Z,9.18
2022-10-27T12:26:27.948Z,8.20
2022-10-27T12:28:54.732Z,10.75
2022-10-27T12:31:25.123Z,10.05
2022-10-27T12:33:57.303Z,8.70
2022-10-27T12:36:48.518Z,10.18
2022-10-27T12:39:32.085Z,9.70
2022-10-27T12:42:06.916Z,10.68
2022-10-27T12:47:38.684Z,8.23
2022-10-27T12:50:23.571Z,9.77
2022-10-27T12:52:55.943Z,9.88
2022-10-27T12:55:28.780Z,8.00
2022-10-27T12:58:46.480Z,7.68
2022-10-27T13:01:34.370Z,7.05
2022-10-27T13:04:39.999Z,6.45
2022-10-27T13:07:25.079Z,9.43
2022-10-27T13:10:14.896Z,7.60
2022-10-27T13:12:57.244Z,8.18
2022-10-27T13:15:44.895Z,12.07
2022-10-27T13:18:53.026Z,6.00
2022-10-27T13:21:40.082Z,10.23
2022-10-27T13:24:31.215Z,6.20
2022-10-27T13:27:15.858Z,11.20
2022-10-27T13:29:49.653Z,7.50
2022-10-27T13:32:32.678Z,6.05
2022-10-27T13:35:01.924Z,5.80
2022-10-27T13:37:48.500Z,7.30
2022-10-27T13:40:18.128Z,8.27
2022-10-27T13:42:54.716Z,7.70
2022-10-27T13:45:27.083Z,7.28
2022-10-27T13:48:11.690Z,9.85
2022-10-27T13:50:38.905Z,7.55
2022-10-27T13:53:14.520Z,8.25
2022-10-27T13:55:47.043Z,8.95
2022-10-27T13:58:19.767Z,8.50
2022-10-27T14:01:05.311Z,8.53
2022-10-27T14:06:14.280Z,6.55
2022-10-27T14:08:49.926Z,6.97
2022-10-27T14:11:30.396Z,8.02
2022-10-27T14:14:03.026Z,9.38
2022-10-27T14:16:34.777Z,7.97
2022-10-27T14:19:05.135Z,10.07
2022-10-27T14:21:36.040Z,7.88
2022-10-27T14:24:26.739Z,9.23
2022-10-27T14:27:04.339Z,6.03
2022-10-27T14:29:33.548Z,7.15
2022-10-27T14:32:13.680Z,6.22
2022-10-27T14:34:40.156Z,7.60
2022-10-27T14:37:16.270Z,8.32
2022-10-27T14:39:43.096Z,7.40
2022-10-27T14:42:27.004Z,8.48
2022-10-27T14:45:11.957Z,9.15
2022-10-27T14:47:41.527Z,7.45
2022-10-27T14:50:25.700Z,6.03
2022-10-27T14:52:56.711Z,10.88
2022-10-27T14:55:35.343Z,9.63
2022-10-27T14:58:02.632Z,9.55
2022-10-27T15:00:34.626Z,9.13
2022-10-27T15:03:04.077Z,8.75
2022-10-27T15:05:35.844Z,6.05
2022-10-27T15:08:05.210Z,6.32
2022-10-27T15:10:37.392Z,7.45
2022-10-27T15:13:05.815Z,5.30
2022-10-27T15:15:39.721Z,7.90
2022-10-27T15:18:21.907Z,7.97
2022-10-27T15:20:48.999Z,6.38
2022-10-27T15:23:15.704Z,6.22
2022-10-27T15:25:46.514Z,9.00
2022-10-27T15:28:16.079Z,7.22
2022-10-27T15:30:43.403Z,8.60
2022-10-27T15:33:28.059Z,9.07
2022-10-27T15:35:55.862Z,7.90
2022-10-27T15:38:27.755Z,7.43
2022-10-27T15:40:55.883Z,7.95
2022-10-27T15:43:27.612Z,7.07
2022-10-27T15:46:19.311Z,9.38
2022-10-27T15:49:28.131Z,6.60
2022-10-27T15:51:57.103Z,7.88
2022-10-27T15:54:49.278Z,5.95
2022-10-27T15:57:35.918Z,7.57
2022-10-27T16:00:19.134Z,7.22
2022-10-27T16:02:54.053Z,9.55
2022-10-27T16:05:29.729Z,8.60
2022-10-27T16:08:00.421Z,6.60
2022-10-27T16:10:27.289Z,7.20
2022-10-27T16:12:55.001Z,7.05
2022-10-27T16:15:24.014Z,7.22
2022-10-27T16:17:56.024Z,8.85
2022-10-27T16:20:24.738Z,5.50
2022-10-27T16:22:52.205Z,8.60
2022-10-27T16:25:20.924Z,6.78
2022-10-27T16:27:47.841Z,8.18
2022-10-27T16:30:16.873Z,9.77
2022-10-27T16:32:45.551Z,7.13
2022-10-27T16:35:24.796Z,8.30
2022-10-27T16:37:51.248Z,8.38
2022-10-27T16:40:18.129Z,9.45
2022-10-27T16:42:47.120Z,7.80
2022-10-27T16:45:20.159Z,8.70
2022-10-27T16:47:50.366Z,7.70
2022-10-27T16:50:17.779Z,7.82
2022-10-27T16:52:44.608Z,6.57
2022-10-27T16:55:12.251Z,9.60
2022-10-27T16:57:39.686Z,5.80
2022-10-27T17:00:07.808Z,5.15
2022-10-27T17:02:34.285Z,6.63
2022-10-27T17:05:00.742Z,5.70
2022-10-27T17:07:27.194Z,8.98
2022-10-27T17:09:53.724Z,8.52
2022-10-27T17:12:20.218Z,7.60
2022-10-27T17:14:49.364Z,6.18
2022-10-27T17:17:17.947Z,8.05
2022-10-27T17:19:44.403Z,10.45
2022-10-27T17:22:10.844Z,5.07
2022-10-27T17:24:37.373Z,9.77
2022-10-27T17:27:04.140Z,6.75
2022-10-27T17:29:30.597Z,6.63
2022-10-27T17:31:57.113Z,9.90
2022-10-27T17:34:23.643Z,9.40
2022-10-27T17:36:50.184Z,6.65
2022-10-27T17:39:16.703Z,8.23
2022-10-27T17:41:43.225Z,9.43
2022-10-27T17:44:09.676Z,8.60
2022-10-27T17:46:36.224Z,6.68
2022-10-27T17:49:02.689Z,6.18
2022-10-27T17:51:30.918Z,5.20
2022-10-27T17:53:58.762Z,3.83
2022-10-27T17:56:27.366Z,6.35
2022-10-27T17:58:53.979Z,6.78
2022-10-27T18:01:31.042Z,8.50
2022-10-27T18:04:06.499Z,7.63
2022-10-27T18:06:33.307Z,6.47
2022-10-27T18:09:01.069Z,10.80
2022-10-27T18:11:29.523Z,5.38
2022-10-27T18:14:03.834Z,6.22
2022-10-27T18:16:32.526Z,7.85
2022-10-27T18:19:01.259Z,8.52
2022-10-27T18:21:33.193Z,5.75
2022-10-27T18:24:00.521Z,6.57
2022-10-27T18:26:28.708Z,7.93
2022-10-27T18:28:55.446Z,6.22
2022-10-27T18:31:23.711Z,7.75
2022-10-27T18:33:50.169Z,6.22
2022-10-27T18:36:21.940Z,6.88
2022-10-27T18:38:52.792Z,6.13
2022-10-27T18:41:19.285Z,9.48
2022-10-27T18:43:52.663Z,6.85
2022-10-27T18:46:20.063Z,7.47
2022-10-27T18:48:49.814Z,7.55
2022-10-27T18:51:16.357Z,6.35
2022-10-27T18:53:43.408Z,7.47
2022-10-27T18:56:11.303Z,6.55
2022-10-27T18:58:38.185Z,7.35
2022-10-27T19:01:15.162Z,7.70
2022-10-27T19:03:42.220Z,7.53
2022-10-27T19:06:10.513Z,6.90
2022-10-27T19:08:37.044Z,7.18
2022-10-27T19:11:09.105Z,9.38
2022-10-27T19:13:37.369Z,9.10
2022-10-27T19:16:10.427Z,8.05
2022-10-27T19:18:37.194Z,7.93
2022-10-27T19:21:06.313Z,6.85
2022-10-27T19:23:33.263Z,6.78
2022-10-27T19:26:08.311Z,7.60
2022-10-27T19:28:36.674Z,6.60
2022-10-27T19:31:16.918Z,8.85
2022-10-27T19:33:44.741Z,6.82
2022-10-27T19:36:15.103Z,8.98
2022-10-27T19:38:42.043Z,7.55
2022-10-27T19:41:11.816Z,8.57
2022-10-27T19:43:38.432Z,9.48
2022-10-27T19:46:05.992Z,7.80
2022-10-27T19:48:36.334Z,8.80
2022-10-27T19:51:13.450Z,7.05
2022-10-27T19:53:40.103Z,12.50
2022-10-27T19:56:06.825Z,9.25
2022-10-27T19:58:33.356Z,8.35
2022-10-27T20:00:59.851Z,5.45
2022-10-27T20:03:26.323Z,9.60
2022-10-27T20:05:56.274Z,7.75
2022-10-27T20:08:23.067Z,7.15
2022-10-27T20:10:49.586Z,5.50
2022-10-27T20:13:18.213Z,9.02
2022-10-27T20:15:44.658Z,7.20
2022-10-27T20:18:11.133Z,7.47
2022-10-27T20:20:37.594Z,9.40
2022-10-27T20:23:04.055Z,7.70
2022-10-27T20:25:30.811Z,10.48
2022-10-27T20:27:57.505Z,9.07
2022-10-27T20:30:33.915Z,5.95
2022-10-27T20:33:00.511Z,7.38
2022-10-27T20:35:27.014Z,7.38
2022-10-27T20:37:53.479Z,7.45
2022-10-27T20:40:21.790Z,8.95
2022-10-27T20:43:04.205Z,11.65
2022-10-27T20:45:30.745Z,9.45
2022-10-27T20:47:57.291Z,6.47
2022-10-27T20:50:23.734Z,6.97
2022-10-27T20:52:50.205Z,9.77
2022-10-27T20:55:16.717Z,6.45
2022-10-27T20:57:43.199Z,5.63
2022-10-27T21:00:11.101Z,6.15
2022-10-27T21:02:37.850Z,5.70
2022-10-27T21:05:04.567Z,7.45
2022-10-27T21:07:31.018Z,7.25
2022-10-27T21:09:57.482Z,6.75
2022-10-27T21:12:23.936Z,8.68
2022-10-27T21:14:50.392Z,8.50
2022-10-27T21:17:16.884Z,6.03
2022-10-27T21:19:43.353Z,6.30
2022-10-27T21:22:09.791Z,5.10
2022-10-27T21:24:38.347Z,6.03
2022-10-27T21:27:04.899Z,8.93
2022-10-27T21:29:31.911Z,7.70
2022-10-27T21:31:58.867Z,7.40
2022-10-27T21:34:25.947Z,6.45
2022-10-27T21:36:52.392Z,6.18
2022-10-27T21:39:19.136Z,8.45
2022-10-27T21:41:45.579Z,5.80
2022-10-27T21:44:12.057Z,6.43
2022-10-27T21:46:38.527Z,5.53
2022-10-27T21:49:05.000Z,8.20
2022-10-27T21:51:31.492Z,7.15
2022-10-27T21:54:02.794Z,6.25
2022-10-27T21:56:30.686Z,8.68
2022-10-27T21:58:57.672Z,8.70
2022-10-27T22:01:25.348Z,7.10
2022-10-27T22:03:52.129Z,6.13
2022-10-27T22:06:23.524Z,7.10
2022-10-27T22:08:50.351Z,5.95
2022-10-27T22:11:21.608Z,7.45
2022-10-27T22:13:48.231Z,6.13
2022-10-27T22:16:19.582Z,7.25
2022-10-27T22:18:46.687Z,9.63
2022-10-27T22:21:15.432Z,7.70
2022-10-27T22:23:42.219Z,5.90
2022-10-27T22:26:11.720Z,6.13
2022-10-27T22:28:38.837Z,8.30
2022-10-27T22:31:10.246Z,5.78
2022-10-27T22:33:39.422Z,10.48
2022-10-27T22:36:10.748Z,6.35
2022-10-27T22:38:37.205Z,5.88
2022-10-27T22:41:12.174Z,6.93
2022-10-27T22:43:38.994Z,5.53
2022-10-27T22:46:06.511Z,6.00
2022-10-27T22:48:34.515Z,8.82
2022-10-27T22:51:06.748Z,9.63
2022-10-27T22:53:35.566Z,9.02
2022-10-27T22:56:16.274Z,8.77
2022-10-27T22:58:43.073Z,10.10
2022-10-27T23:01:12.089Z,7.88
2022-10-27T23:03:38.959Z,7.68
2022-10-27T23:06:05.501Z,7.30
2022-10-27T23:08:31.955Z,10.32
2022-10-27T23:11:00.476Z,10.85
2022-10-27T23:13:28.198Z,10.55
2022-10-27T23:15:59.618Z,10.82
2022-10-27T23:18:26.539Z,9.35
2022-10-27T23:20:57.162Z,8.57
2022-10-27T23:23:23.826Z,9.40
2022-10-27T23:25:50.515Z,6.32
2022-10-27T23:28:16.984Z,7.25
2022-10-27T23:30:43.468Z,10.75
2022-10-27T23:33:09.948Z,9.55
2022-10-27T23:35:39.532Z,9.70
2022-10-27T23:38:05.978Z,9.23
2022-10-27T23:40:32.630Z,10.90
2022-10-27T23:42:59.092Z,8.25
2022-10-27T23:45:27.171Z,9.55
2022-10-27T23:47:53.763Z,8.15
2022-10-27T23:50:20.664Z,9.10
2022-10-27T23:52:47.202Z,12.60
2022-10-27T23:55:13.681Z,13.18
2022-10-27T23:57:40.147Z,8.82
